sensor_id;sensor_type;location;lat;lon;timestamp;temperature;humidity
20463;DHT22;10390;53.566;9.980;2022-12-16T00:01:13;24.00;1.00
20463;DHT22;10390;53.566;9.980;2022-12-16T00:03:40;24.00;1.00
20463;DHT22;10390;53.566;9.980;2022-12-16T00:06:07;24.00;1.00
20463;DHT22;10390;53.566;9.980;2022-12-16T00:08:38;24.00;1.00
20463;DHT22;10390;53.566;9.980;2022-12-16T00:11:04;23.90;1.00
20463;DHT22;10390;53.566;9.980;2022-12-16T00:13:31;23.90;1.00
20463;DHT22;10390;53.566;9.980;2022-12-16T00:15:58;23.90;1.00
20463;DHT22;10390;53.566;9.980;2022-12-16T00:18:24;23.90;1.00
20463;DHT22;10390;53.566;9.980;2022-12-16T00:20:53;23.90;1.00
20463;DHT22;10390;53.566;9.980;2022-12-16T00:23:19;23.90;1.00
20463;DHT22;10390;53.566;9.980;2022-12-16T00:25:45;23.90;1.00
20463;DHT22;10390;53.566;9.980;2022-12-16T00:28:13;23.90;1.00
20463;DHT22;10390;53.566;9.980;2022-12-16T00:30:41;23.80;1.00
20463;DHT22;10390;53.566;9.980;2022-12-16T00:33:07;23.80;1.00
20463;DHT22;10390;53.566;9.980;2022-12-16T00:35:34;23.80;1.00
20463;DHT22;10390;53.566;9.980;2022-12-16T00:37:59;23.80;1.00
20463;DHT22;10390;53.566;9.980;2022-12-16T00:40:25;23.80;1.00
20463;DHT22;10390;53.566;9.980;2022-12-16T00:42:51;23.90;1.00
20463;DHT22;10390;53.566;9.980;2022-12-16T00:45:17;23.90;1.00
20463;DHT22;10390;53.566;9.980;2022-12-16T00:47:42;23.90;1.00
20463;DHT22;10390;53.566;9.980;2022-12-16T00:50:08;23.90;1.00
20463;DHT22;10390;53.566;9.980;2022-12-16T00:52:35;23.90;1.00
20463;DHT22;10390;53.566;9.980;2022-12-16T00:55:01;23.90;1.00
20463;DHT22;10390;53.566;9.980;2022-12-16T00:57:27;23.80;1.00
20463;DHT22;10390;53.566;9.980;2022-12-16T00:59:52;23.90;1.00
20463;DHT22;10390;53.566;9.980;2022-12-16T01:02:18;23.90;1.00
20463;DHT22;10390;53.566;9.980;2022-12-16T01:04:44;23.80;1.00
20463;DHT22;10390;53.566;9.980;2022-12-16T01:07:09;23.80;1.00
20463;DHT22;10390;53.566;9.980;2022-12-16T01:09:35;23.80;1.00
20463;DHT22;10390;53.566;9.980;2022-12-16T01:12:01;23.80;1.00
20463;DHT22;10390;53.566;9.980;2022-12-16T01:14:27;23.80;1.00
20463;DHT22;10390;53.566;9.980;2022-12-16T01:16:52;23.80;1.00
20463;DHT22;10390;53.566;9.980;2022-12-16T01:19:18;23.80;1.00
20463;DHT22;10390;53.566;9.980;2022-12-16T01:21:43;23.80;1.00
20463;DHT22;10390;53.566;9.980;2022-12-16T01:24:12;23.80;1.00
20463;DHT22;10390;53.566;9.980;2022-12-16T01:26:38;23.80;1.00
20463;DHT22;10390;53.566;9.980;2022-12-16T01:29:04;23.80;1.00
20463;DHT22;10390;53.566;9.980;2022-12-16T01:31:30;23.80;1.00
20463;DHT22;10390;53.566;9.980;2022-12-16T01:33:56;23.80;1.00
20463;DHT22;10390;53.566;9.980;2022-12-16T01:36:21;23.80;1.00
20463;DHT22;10390;53.566;9.980;2022-12-16T01:38:47;23.80;1.00
20463;DHT22;10390;53.566;9.980;2022-12-16T01:41:14;23.80;1.00
20463;DHT22;10390;53.566;9.980;2022-12-16T01:43:41;23.80;1.00
20463;DHT22;10390;53.566;9.980;2022-12-16T01:48:58;23.80;1.00
20463;DHT22;10390;53.566;9.980;2022-12-16T01:51:32;23.80;1.00
20463;DHT22;10390;53.566;9.980;2022-12-16T01:54:17;23.80;1.00
20463;DHT22;10390;53.566;9.980;2022-12-16T01:56:53;23.80;1.00
20463;DHT22;10390;53.566;9.980;2022-12-16T01:59:21;23.80;1.00
20463;DHT22;10390;53.566;9.980;2022-12-16T02:01:48;23.80;1.00
20463;DHT22;10390;53.566;9.980;2022-12-16T02:04:14;23.80;1.00
20463;DHT22;10390;53.566;9.980;2022-12-16T02:06:40;23.80;1.00
20463;DHT22;10390;53.566;9.980;2022-12-16T02:09:08;23.80;1.00
20463;DHT22;10390;53.566;9.980;2022-12-16T02:17:02;23.80;1.00
20463;DHT22;10390;53.566;9.980;2022-12-16T02:41:59;23.70;1.00
20463;DHT22;10390;53.566;9.980;2022-12-16T02:47:04;23.80;1.00
20463;DHT22;10390;53.566;9.980;2022-12-16T02:51:57;23.80;1.00
20463;DHT22;10390;53.566;9.980;2022-12-16T02:54:24;23.80;1.00
20463;DHT22;10390;53.566;9.980;2022-12-16T03:02:24;23.80;1.00
20463;DHT22;10390;53.566;9.980;2022-12-16T03:04:56;23.80;1.00
20463;DHT22;10390;53.566;9.980;2022-12-16T03:07:25;23.80;1.00
20463;DHT22;10390;53.566;9.980;2022-12-16T03:09:53;23.80;1.00
20463;DHT22;10390;53.566;9.980;2022-12-16T03:12:21;23.80;1.00
20463;DHT22;10390;53.566;9.980;2022-12-16T03:14:50;23.80;1.00
20463;DHT22;10390;53.566;9.980;2022-12-16T03:17:17;23.80;1.00
20463;DHT22;10390;53.566;9.980;2022-12-16T03:19:49;23.80;1.00
20463;DHT22;10390;53.566;9.980;2022-12-16T03:22:20;23.80;1.00
20463;DHT22;10390;53.566;9.980;2022-12-16T03:24:46;23.80;1.00
20463;DHT22;10390;53.566;9.980;2022-12-16T03:32:37;23.80;1.00
20463;DHT22;10390;53.566;9.980;2022-12-16T03:37:39;23.80;1.00
20463;DHT22;10390;53.566;9.980;2022-12-16T03:40:07;23.70;1.00
20463;DHT22;10390;53.566;9.980;2022-12-16T03:42:35;23.80;1.00
20463;DHT22;10390;53.566;9.980;2022-12-16T03:45:01;23.70;1.00
20463;DHT22;10390;53.566;9.980;2022-12-16T03:47:28;23.70;1.00
20463;DHT22;10390;53.566;9.980;2022-12-16T03:49:54;23.80;1.00
20463;DHT22;10390;53.566;9.980;2022-12-16T03:52:20;23.70;1.00
20463;DHT22;10390;53.566;9.980;2022-12-16T03:54:45;23.80;1.00
20463;DHT22;10390;53.566;9.980;2022-12-16T03:57:11;23.80;1.00
20463;DHT22;10390;53.566;9.980;2022-12-16T03:59:37;23.80;1.00
20463;DHT22;10390;53.566;9.980;2022-12-16T04:02:03;23.80;1.00
20463;DHT22;10390;53.566;9.980;2022-12-16T04:04:28;23.70;1.00
20463;DHT22;10390;53.566;9.980;2022-12-16T04:06:54;23.80;1.00
20463;DHT22;10390;53.566;9.980;2022-12-16T04:09:38;23.80;1.00
20463;DHT22;10390;53.566;9.980;2022-12-16T04:12:04;23.70;1.00
20463;DHT22;10390;53.566;9.980;2022-12-16T04:14:48;23.80;1.00
20463;DHT22;10390;53.566;9.980;2022-12-16T04:17:32;23.70;1.00
20463;DHT22;10390;53.566;9.980;2022-12-16T04:20:17;23.70;1.00
20463;DHT22;10390;53.566;9.980;2022-12-16T04:23:03;23.70;1.00
20463;DHT22;10390;53.566;9.980;2022-12-16T04:25:48;23.70;1.00
20463;DHT22;10390;53.566;9.980;2022-12-16T04:28:13;23.70;1.00
20463;DHT22;10390;53.566;9.980;2022-12-16T04:30:39;23.70;1.00
20463;DHT22;10390;53.566;9.980;2022-12-16T04:33:07;23.70;1.00
20463;DHT22;10390;53.566;9.980;2022-12-16T04:35:52;23.70;1.00
20463;DHT22;10390;53.566;9.980;2022-12-16T04:38:37;23.70;1.00
20463;DHT22;10390;53.566;9.980;2022-12-16T04:41:21;23.70;1.00
20463;DHT22;10390;53.566;9.980;2022-12-16T04:44:05;23.70;1.00
20463;DHT22;10390;53.566;9.980;2022-12-16T04:46:49;23.80;1.00
20463;DHT22;10390;53.566;9.980;2022-12-16T04:49:34;23.80;1.00
20463;DHT22;10390;53.566;9.980;2022-12-16T04:52:18;23.70;1.00
20463;DHT22;10390;53.566;9.980;2022-12-16T04:55:03;23.70;1.00
20463;DHT22;10390;53.566;9.980;2022-12-16T04:57:56;23.70;1.00
20463;DHT22;10390;53.566;9.980;2022-12-16T05:00:41;23.70;1.00
20463;DHT22;10390;53.566;9.980;2022-12-16T05:03:26;23.70;1.00
20463;DHT22;10390;53.566;9.980;2022-12-16T05:06:10;23.70;1.00
20463;DHT22;10390;53.566;9.980;2022-12-16T05:08:54;23.80;1.00
20463;DHT22;10390;53.566;9.980;2022-12-16T05:11:38;23.80;1.00
20463;DHT22;10390;53.566;9.980;2022-12-16T05:14:23;23.80;1.00
20463;DHT22;10390;53.566;9.980;2022-12-16T05:17:07;23.80;1.00
20463;DHT22;10390;53.566;9.980;2022-12-16T05:19:51;23.80;1.00
20463;DHT22;10390;53.566;9.980;2022-12-16T05:22:35;23.80;1.00
20463;DHT22;10390;53.566;9.980;2022-12-16T05:25:19;23.80;1.00
20463;DHT22;10390;53.566;9.980;2022-12-16T05:28:04;23.80;1.00
20463;DHT22;10390;53.566;9.980;2022-12-16T05:30:48;23.80;1.00
20463;DHT22;10390;53.566;9.980;2022-12-16T05:33:32;23.80;1.00
20463;DHT22;10390;53.566;9.980;2022-12-16T05:36:16;23.70;1.00
20463;DHT22;10390;53.566;9.980;2022-12-16T05:39:00;23.70;1.00
20463;DHT22;10390;53.566;9.980;2022-12-16T05:41:44;23.70;1.00
20463;DHT22;10390;53.566;9.980;2022-12-16T05:44:29;23.70;1.00
20463;DHT22;10390;53.566;9.980;2022-12-16T05:47:13;23.70;1.00
20463;DHT22;10390;53.566;9.980;2022-12-16T05:49:57;23.70;1.00
20463;DHT22;10390;53.566;9.980;2022-12-16T05:52:50;23.60;1.00
20463;DHT22;10390;53.566;9.980;2022-12-16T05:55:39;23.60;1.00
20463;DHT22;10390;53.566;9.980;2022-12-16T05:58:24;23.60;1.00
20463;DHT22;10390;53.566;9.980;2022-12-16T06:01:09;23.60;1.00
20463;DHT22;10390;53.566;9.980;2022-12-16T06:03:53;23.60;1.00
20463;DHT22;10390;53.566;9.980;2022-12-16T06:06:37;23.60;1.00
20463;DHT22;10390;53.566;9.980;2022-12-16T06:09:21;23.60;1.00
20463;DHT22;10390;53.566;9.980;2022-12-16T06:12:05;23.60;1.00
20463;DHT22;10390;53.566;9.980;2022-12-16T06:14:50;23.60;1.00
20463;DHT22;10390;53.566;9.980;2022-12-16T06:17:34;23.60;1.00
20463;DHT22;10390;53.566;9.980;2022-12-16T06:20:19;23.60;1.00
20463;DHT22;10390;53.566;9.980;2022-12-16T06:23:03;23.60;1.00
20463;DHT22;10390;53.566;9.980;2022-12-16T06:25:47;23.60;1.00
20463;DHT22;10390;53.566;9.980;2022-12-16T06:28:31;23.60;1.00
20463;DHT22;10390;53.566;9.980;2022-12-16T06:31:16;23.60;1.00
20463;DHT22;10390;53.566;9.980;2022-12-16T06:34:00;23.60;1.00
20463;DHT22;10390;53.566;9.980;2022-12-16T06:36:44;23.60;1.00
20463;DHT22;10390;53.566;9.980;2022-12-16T06:39:28;23.60;1.00
20463;DHT22;10390;53.566;9.980;2022-12-16T06:42:12;23.50;1.00
20463;DHT22;10390;53.566;9.980;2022-12-16T06:44:57;23.50;1.00
20463;DHT22;10390;53.566;9.980;2022-12-16T06:47:44;23.50;1.00
20463;DHT22;10390;53.566;9.980;2022-12-16T06:50:29;23.50;1.00
20463;DHT22;10390;53.566;9.980;2022-12-16T06:53:13;23.50;1.00
20463;DHT22;10390;53.566;9.980;2022-12-16T06:55:58;23.50;1.00
20463;DHT22;10390;53.566;9.980;2022-12-16T06:58:42;23.50;1.00
20463;DHT22;10390;53.566;9.980;2022-12-16T07:01:26;23.50;1.00
20463;DHT22;10390;53.566;9.980;2022-12-16T07:04:10;23.40;1.00
20463;DHT22;10390;53.566;9.980;2022-12-16T07:06:55;23.50;1.00
20463;DHT22;10390;53.566;9.980;2022-12-16T07:09:39;23.40;1.00
20463;DHT22;10390;53.566;9.980;2022-12-16T07:12:23;23.50;1.00
20463;DHT22;10390;53.566;9.980;2022-12-16T07:15:09;23.40;1.00
20463;DHT22;10390;53.566;9.980;2022-12-16T07:17:53;23.50;1.00
20463;DHT22;10390;53.566;9.980;2022-12-16T07:20:37;23.50;1.00
20463;DHT22;10390;53.566;9.980;2022-12-16T07:23:21;23.50;1.00
20463;DHT22;10390;53.566;9.980;2022-12-16T07:26:05;23.50;1.00
20463;DHT22;10390;53.566;9.980;2022-12-16T07:28:49;23.50;1.00
20463;DHT22;10390;53.566;9.980;2022-12-16T07:31:33;23.50;1.00
20463;DHT22;10390;53.566;9.980;2022-12-16T07:34:17;23.50;1.00
20463;DHT22;10390;53.566;9.980;2022-12-16T07:37:01;23.60;1.00
20463;DHT22;10390;53.566;9.980;2022-12-16T07:39:45;23.60;1.00
20463;DHT22;10390;53.566;9.980;2022-12-16T07:42:29;23.60;1.00
20463;DHT22;10390;53.566;9.980;2022-12-16T07:45:14;23.60;1.00
20463;DHT22;10390;53.566;9.980;2022-12-16T07:47:58;23.60;1.00
20463;DHT22;10390;53.566;9.980;2022-12-16T07:50:42;23.70;1.00
20463;DHT22;10390;53.566;9.980;2022-12-16T07:53:28;23.60;1.00
20463;DHT22;10390;53.566;9.980;2022-12-16T07:56:12;23.70;1.00
20463;DHT22;10390;53.566;9.980;2022-12-16T07:58:56;23.70;1.00
20463;DHT22;10390;53.566;9.980;2022-12-16T08:01:40;23.70;1.00
20463;DHT22;10390;53.566;9.980;2022-12-16T08:04:24;23.70;1.00
20463;DHT22;10390;53.566;9.980;2022-12-16T08:07:08;23.70;1.00
20463;DHT22;10390;53.566;9.980;2022-12-16T08:09:52;23.70;1.00
20463;DHT22;10390;53.566;9.980;2022-12-16T08:12:36;23.70;1.00
20463;DHT22;10390;53.566;9.980;2022-12-16T08:15:20;23.70;1.00
20463;DHT22;10390;53.566;9.980;2022-12-16T08:18:05;23.70;1.00
20463;DHT22;10390;53.566;9.980;2022-12-16T08:20:49;23.70;1.00
20463;DHT22;10390;53.566;9.980;2022-12-16T08:23:33;23.70;1.00
20463;DHT22;10390;53.566;9.980;2022-12-16T08:26:17;23.70;1.00
20463;DHT22;10390;53.566;9.980;2022-12-16T08:29:01;23.70;1.00
20463;DHT22;10390;53.566;9.980;2022-12-16T08:31:46;23.70;1.00
20463;DHT22;10390;53.566;9.980;2022-12-16T08:34:30;23.80;1.00
20463;DHT22;10390;53.566;9.980;2022-12-16T08:37:14;23.80;1.00
20463;DHT22;10390;53.566;9.980;2022-12-16T08:39:58;23.80;1.00
20463;DHT22;10390;53.566;9.980;2022-12-16T08:42:50;23.80;1.00
20463;DHT22;10390;53.566;9.980;2022-12-16T08:45:34;23.80;1.00
20463;DHT22;10390;53.566;9.980;2022-12-16T08:48:18;23.80;1.00
20463;DHT22;10390;53.566;9.980;2022-12-16T08:51:05;23.80;1.00
20463;DHT22;10390;53.566;9.980;2022-12-16T08:53:50;23.90;1.00
20463;DHT22;10390;53.566;9.980;2022-12-16T08:56:34;23.80;1.00
20463;DHT22;10390;53.566;9.980;2022-12-16T08:59:18;23.80;1.00
20463;DHT22;10390;53.566;9.980;2022-12-16T09:02:02;23.80;1.00
20463;DHT22;10390;53.566;9.980;2022-12-16T09:04:47;23.80;1.00
20463;DHT22;10390;53.566;9.980;2022-12-16T09:07:31;23.80;1.00
20463;DHT22;10390;53.566;9.980;2022-12-16T09:10:15;23.80;1.00
20463;DHT22;10390;53.566;9.980;2022-12-16T09:13:12;23.80;1.00
20463;DHT22;10390;53.566;9.980;2022-12-16T09:15:57;23.80;1.00
20463;DHT22;10390;53.566;9.980;2022-12-16T09:18:44;23.80;1.00
20463;DHT22;10390;53.566;9.980;2022-12-16T09:21:28;23.70;1.00
20463;DHT22;10390;53.566;9.980;2022-12-16T09:24:12;23.70;1.00
20463;DHT22;10390;53.566;9.980;2022-12-16T09:26:56;23.70;1.00
20463;DHT22;10390;53.566;9.980;2022-12-16T09:29:40;23.70;1.00
20463;DHT22;10390;53.566;9.980;2022-12-16T09:32:24;23.70;1.00
20463;DHT22;10390;53.566;9.980;2022-12-16T09:35:09;23.70;1.00
20463;DHT22;10390;53.566;9.980;2022-12-16T09:37:53;23.80;1.00
20463;DHT22;10390;53.566;9.980;2022-12-16T09:40:41;23.80;1.00
20463;DHT22;10390;53.566;9.980;2022-12-16T09:49:55;23.80;1.00
20463;DHT22;10390;53.566;9.980;2022-12-16T09:52:50;23.80;1.00
20463;DHT22;10390;53.566;9.980;2022-12-16T09:55:38;23.80;1.00
20463;DHT22;10390;53.566;9.980;2022-12-16T09:58:38;23.80;1.00
20463;DHT22;10390;53.566;9.980;2022-12-16T10:01:24;23.80;1.00
20463;DHT22;10390;53.566;9.980;2022-12-16T10:04:09;23.80;1.00
20463;DHT22;10390;53.566;9.980;2022-12-16T10:06:58;23.80;1.00
20463;DHT22;10390;53.566;9.980;2022-12-16T10:10:15;23.80;1.00
20463;DHT22;10390;53.566;9.980;2022-12-16T10:22:37;23.80;1.00
20463;DHT22;10390;53.566;9.980;2022-12-16T10:25:26;23.80;1.00
20463;DHT22;10390;53.566;9.980;2022-12-16T10:28:17;23.90;1.00
20463;DHT22;10390;53.566;9.980;2022-12-16T10:31:12;23.90;1.00
20463;DHT22;10390;53.566;9.980;2022-12-16T10:33:56;23.90;1.00
20463;DHT22;10390;53.566;9.980;2022-12-16T10:36:40;23.90;1.00
20463;DHT22;10390;53.566;9.980;2022-12-16T10:39:30;23.90;1.00
20463;DHT22;10390;53.566;9.980;2022-12-16T10:42:36;23.80;1.00
20463;DHT22;10390;53.566;9.980;2022-12-16T10:45:34;23.80;1.00
20463;DHT22;10390;53.566;9.980;2022-12-16T10:48:28;23.80;1.00
20463;DHT22;10390;53.566;9.980;2022-12-16T10:51:21;23.80;1.00
20463;DHT22;10390;53.566;9.980;2022-12-16T10:57:11;23.80;1.00
20463;DHT22;10390;53.566;9.980;2022-12-16T11:03:31;23.80;1.00
20463;DHT22;10390;53.566;9.980;2022-12-16T11:06:26;23.90;1.00
20463;DHT22;10390;53.566;9.980;2022-12-16T11:18:15;23.90;1.00
20463;DHT22;10390;53.566;9.980;2022-12-16T11:21:15;23.90;1.00
20463;DHT22;10390;53.566;9.980;2022-12-16T11:24:19;23.80;1.00
20463;DHT22;10390;53.566;9.980;2022-12-16T11:30:22;23.80;1.00
20463;DHT22;10390;53.566;9.980;2022-12-16T11:33:26;23.80;1.00
20463;DHT22;10390;53.566;9.980;2022-12-16T11:36:18;23.80;1.00
20463;DHT22;10390;53.566;9.980;2022-12-16T11:39:04;23.80;1.00
20463;DHT22;10390;53.566;9.980;2022-12-16T11:41:53;23.80;1.00
20463;DHT22;10390;53.566;9.980;2022-12-16T11:44:54;23.80;1.00
20463;DHT22;10390;53.566;9.980;2022-12-16T11:47:48;23.80;1.00
20463;DHT22;10390;53.566;9.980;2022-12-16T11:50:37;23.80;1.00
20463;DHT22;10390;53.566;9.980;2022-12-16T11:56:23;23.80;1.00
20463;DHT22;10390;53.566;9.980;2022-12-16T11:59:43;23.80;1.00
20463;DHT22;10390;53.566;9.980;2022-12-16T12:08:52;23.90;1.00
20463;DHT22;10390;53.566;9.980;2022-12-16T12:27:37;24.00;1.00
20463;DHT22;10390;53.566;9.980;2022-12-16T12:30:21;23.90;1.00
20463;DHT22;10390;53.566;9.980;2022-12-16T12:33:32;23.90;1.00
20463;DHT22;10390;53.566;9.980;2022-12-16T12:36:40;23.90;1.00
20463;DHT22;10390;53.566;9.980;2022-12-16T12:39:36;23.90;1.00
20463;DHT22;10390;53.566;9.980;2022-12-16T12:45:47;23.90;1.00
20463;DHT22;10390;53.566;9.980;2022-12-16T12:51:34;23.80;1.00
20463;DHT22;10390;53.566;9.980;2022-12-16T12:54:29;23.80;1.00
20463;DHT22;10390;53.566;9.980;2022-12-16T12:57:18;23.80;1.00
20463;DHT22;10390;53.566;9.980;2022-12-16T13:05:46;23.90;1.00
20463;DHT22;10390;53.566;9.980;2022-12-16T13:11:21;23.90;1.00
20463;DHT22;10390;53.566;9.980;2022-12-16T13:17:16;24.00;1.00
20463;DHT22;10390;53.566;9.980;2022-12-16T13:20:01;24.00;1.00
20463;DHT22;10390;53.566;9.980;2022-12-16T13:22:46;24.00;1.00
20463;DHT22;10390;53.566;9.980;2022-12-16T13:25:48;24.00;1.00
20463;DHT22;10390;53.566;9.980;2022-12-16T13:28:36;23.90;1.00
20463;DHT22;10390;53.566;9.980;2022-12-16T13:31:22;24.00;1.00
20463;DHT22;10390;53.566;9.980;2022-12-16T13:34:21;24.00;1.00
20463;DHT22;10390;53.566;9.980;2022-12-16T13:37:24;24.00;1.00
20463;DHT22;10390;53.566;9.980;2022-12-16T13:40:19;23.90;1.00
20463;DHT22;10390;53.566;9.980;2022-12-16T13:43:03;23.90;1.00
20463;DHT22;10390;53.566;9.980;2022-12-16T13:48:47;23.90;1.00
20463;DHT22;10390;53.566;9.980;2022-12-16T13:54:27;23.90;1.00
20463;DHT22;10390;53.566;9.980;2022-12-16T13:57:13;23.90;1.00
20463;DHT22;10390;53.566;9.980;2022-12-16T14:00:03;23.90;1.00
20463;DHT22;10390;53.566;9.980;2022-12-16T14:02:49;23.90;1.00
20463;DHT22;10390;53.566;9.980;2022-12-16T14:05:36;24.00;1.00
20463;DHT22;10390;53.566;9.980;2022-12-16T14:08:25;24.00;1.00
20463;DHT22;10390;53.566;9.980;2022-12-16T14:14:26;24.10;1.00
20463;DHT22;10390;53.566;9.980;2022-12-16T14:17:21;24.10;1.00
20463;DHT22;10390;53.566;9.980;2022-12-16T14:20:24;24.20;1.00
20463;DHT22;10390;53.566;9.980;2022-12-16T14:26:29;24.20;1.00
20463;DHT22;10390;53.566;9.980;2022-12-16T14:29:25;24.10;1.00
20463;DHT22;10390;53.566;9.980;2022-12-16T14:32:27;24.20;1.00
20463;DHT22;10390;53.566;9.980;2022-12-16T14:35:22;24.10;1.00
20463;DHT22;10390;53.566;9.980;2022-12-16T14:38:27;24.10;1.00
20463;DHT22;10390;53.566;9.980;2022-12-16T14:41:20;24.00;1.00
20463;DHT22;10390;53.566;9.980;2022-12-16T14:44:19;24.00;1.00
20463;DHT22;10390;53.566;9.980;2022-12-16T14:47:04;24.00;1.00
20463;DHT22;10390;53.566;9.980;2022-12-16T14:49:51;23.90;1.00
20463;DHT22;10390;53.566;9.980;2022-12-16T14:52:36;23.90;1.00
20463;DHT22;10390;53.566;9.980;2022-12-16T14:55:32;23.90;1.00
20463;DHT22;10390;53.566;9.980;2022-12-16T14:58:22;23.90;1.00
20463;DHT22;10390;53.566;9.980;2022-12-16T15:01:21;23.80;1.00
20463;DHT22;10390;53.566;9.980;2022-12-16T15:04:13;23.80;1.00
20463;DHT22;10390;53.566;9.980;2022-12-16T15:07:00;23.80;1.00
20463;DHT22;10390;53.566;9.980;2022-12-16T15:09:47;23.80;1.00
20463;DHT22;10390;53.566;9.980;2022-12-16T15:12:37;23.90;1.00
20463;DHT22;10390;53.566;9.980;2022-12-16T15:15:29;24.00;1.00
20463;DHT22;10390;53.566;9.980;2022-12-16T15:18:19;24.00;1.00
20463;DHT22;10390;53.566;9.980;2022-12-16T15:21:05;24.00;1.00
20463;DHT22;10390;53.566;9.980;2022-12-16T15:23:50;24.00;1.00
20463;DHT22;10390;53.566;9.980;2022-12-16T15:26:35;24.00;1.00
20463;DHT22;10390;53.566;9.980;2022-12-16T15:29:33;24.00;1.00
20463;DHT22;10390;53.566;9.980;2022-12-16T15:38:17;23.90;1.00
20463;DHT22;10390;53.566;9.980;2022-12-16T15:41:04;23.80;1.00
20463;DHT22;10390;53.566;9.980;2022-12-16T15:43:49;23.80;1.00
20463;DHT22;10390;53.566;9.980;2022-12-16T15:46:34;23.80;1.00
20463;DHT22;10390;53.566;9.980;2022-12-16T15:49:32;23.80;1.00
20463;DHT22;10390;53.566;9.980;2022-12-16T15:52:39;23.80;1.00
20463;DHT22;10390;53.566;9.980;2022-12-16T15:55:35;23.80;1.00
20463;DHT22;10390;53.566;9.980;2022-12-16T15:58:34;23.70;1.00
20463;DHT22;10390;53.566;9.980;2022-12-16T16:01:26;23.70;1.00
20463;DHT22;10390;53.566;9.980;2022-12-16T16:04:22;23.70;1.00
20463;DHT22;10390;53.566;9.980;2022-12-16T16:07:16;23.60;1.00
20463;DHT22;10390;53.566;9.980;2022-12-16T16:10:27;23.60;1.00
20463;DHT22;10390;53.566;9.980;2022-12-16T16:13:11;23.50;1.00
20463;DHT22;10390;53.566;9.980;2022-12-16T16:15:56;23.50;1.00
20463;DHT22;10390;53.566;9.980;2022-12-16T16:18:41;23.40;1.00
20463;DHT22;10390;53.566;9.980;2022-12-16T16:21:26;23.40;1.00
20463;DHT22;10390;53.566;9.980;2022-12-16T16:24:11;23.40;1.00
20463;DHT22;10390;53.566;9.980;2022-12-16T16:26:58;23.40;1.00
20463;DHT22;10390;53.566;9.980;2022-12-16T16:29:43;23.50;1.00
20463;DHT22;10390;53.566;9.980;2022-12-16T16:32:28;23.40;1.00
20463;DHT22;10390;53.566;9.980;2022-12-16T16:35:12;23.50;1.00
20463;DHT22;10390;53.566;9.980;2022-12-16T16:37:56;23.50;1.00
20463;DHT22;10390;53.566;9.980;2022-12-16T16:40:42;23.50;1.00
20463;DHT22;10390;53.566;9.980;2022-12-16T16:43:27;23.50;1.00
20463;DHT22;10390;53.566;9.980;2022-12-16T16:46:38;23.50;1.00
20463;DHT22;10390;53.566;9.980;2022-12-16T16:49:30;23.60;1.00
20463;DHT22;10390;53.566;9.980;2022-12-16T16:52:20;23.60;1.00
20463;DHT22;10390;53.566;9.980;2022-12-16T16:55:06;23.60;1.00
20463;DHT22;10390;53.566;9.980;2022-12-16T16:57:51;23.60;1.00
20463;DHT22;10390;53.566;9.980;2022-12-16T17:00:35;23.60;1.00
20463;DHT22;10390;53.566;9.980;2022-12-16T17:03:19;23.60;1.00
20463;DHT22;10390;53.566;9.980;2022-12-16T17:06:04;23.60;1.00
20463;DHT22;10390;53.566;9.980;2022-12-16T17:08:48;23.60;1.00
20463;DHT22;10390;53.566;9.980;2022-12-16T17:11:32;23.60;1.00
20463;DHT22;10390;53.566;9.980;2022-12-16T17:14:18;23.60;1.00
20463;DHT22;10390;53.566;9.980;2022-12-16T17:17:03;23.60;1.00
20463;DHT22;10390;53.566;9.980;2022-12-16T17:19:47;23.60;1.00
20463;DHT22;10390;53.566;9.980;2022-12-16T17:22:32;23.50;1.00
20463;DHT22;10390;53.566;9.980;2022-12-16T17:25:16;23.60;1.00
20463;DHT22;10390;53.566;9.980;2022-12-16T17:28:01;23.60;1.00
20463;DHT22;10390;53.566;9.980;2022-12-16T17:30:46;23.60;1.00
20463;DHT22;10390;53.566;9.980;2022-12-16T17:33:30;23.60;1.00
20463;DHT22;10390;53.566;9.980;2022-12-16T17:36:16;23.60;1.00
20463;DHT22;10390;53.566;9.980;2022-12-16T17:39:00;23.60;1.00
20463;DHT22;10390;53.566;9.980;2022-12-16T17:41:45;23.60;1.00
20463;DHT22;10390;53.566;9.980;2022-12-16T17:44:29;23.70;1.00
20463;DHT22;10390;53.566;9.980;2022-12-16T17:47:14;23.70;1.00
20463;DHT22;10390;53.566;9.980;2022-12-16T17:49:58;23.70;1.00
20463;DHT22;10390;53.566;9.980;2022-12-16T17:52:43;23.70;1.00
20463;DHT22;10390;53.566;9.980;2022-12-16T17:55:27;23.70;1.00
20463;DHT22;10390;53.566;9.980;2022-12-16T17:58:12;23.70;1.00
20463;DHT22;10390;53.566;9.980;2022-12-16T18:01:05;23.70;1.00
20463;DHT22;10390;53.566;9.980;2022-12-16T18:03:49;23.70;1.00
20463;DHT22;10390;53.566;9.980;2022-12-16T18:06:34;23.70;1.00
20463;DHT22;10390;53.566;9.980;2022-12-16T18:09:18;23.70;1.00
20463;DHT22;10390;53.566;9.980;2022-12-16T18:12:03;23.70;1.00
20463;DHT22;10390;53.566;9.980;2022-12-16T18:14:47;23.70;1.00
20463;DHT22;10390;53.566;9.980;2022-12-16T18:17:31;23.70;1.00
20463;DHT22;10390;53.566;9.980;2022-12-16T18:20:16;23.70;1.00
20463;DHT22;10390;53.566;9.980;2022-12-16T18:23:00;23.70;1.00
20463;DHT22;10390;53.566;9.980;2022-12-16T18:25:44;23.70;1.00
20463;DHT22;10390;53.566;9.980;2022-12-16T18:28:30;23.70;1.00
20463;DHT22;10390;53.566;9.980;2022-12-16T18:31:14;23.70;1.00
20463;DHT22;10390;53.566;9.980;2022-12-16T18:33:58;23.70;1.00
20463;DHT22;10390;53.566;9.980;2022-12-16T18:36:47;23.70;1.00
20463;DHT22;10390;53.566;9.980;2022-12-16T18:39:31;23.70;1.00
20463;DHT22;10390;53.566;9.980;2022-12-16T18:42:16;23.70;1.00
20463;DHT22;10390;53.566;9.980;2022-12-16T18:45:10;23.70;1.00
20463;DHT22;10390;53.566;9.980;2022-12-16T18:47:55;23.80;1.00
20463;DHT22;10390;53.566;9.980;2022-12-16T18:50:39;23.80;1.00
20463;DHT22;10390;53.566;9.980;2022-12-16T18:53:23;23.80;1.00
20463;DHT22;10390;53.566;9.980;2022-12-16T18:56:08;23.90;1.00
20463;DHT22;10390;53.566;9.980;2022-12-16T18:58:52;23.80;1.00
20463;DHT22;10390;53.566;9.980;2022-12-16T19:01:37;23.90;1.00
20463;DHT22;10390;53.566;9.980;2022-12-16T19:04:21;23.80;1.00
20463;DHT22;10390;53.566;9.980;2022-12-16T19:07:05;23.80;1.00
20463;DHT22;10390;53.566;9.980;2022-12-16T19:09:49;23.80;1.00
20463;DHT22;10390;53.566;9.980;2022-12-16T19:12:34;23.80;1.00
20463;DHT22;10390;53.566;9.980;2022-12-16T19:15:18;23.80;1.00
20463;DHT22;10390;53.566;9.980;2022-12-16T19:18:02;23.80;1.00
20463;DHT22;10390;53.566;9.980;2022-12-16T19:20:53;23.80;1.00
20463;DHT22;10390;53.566;9.980;2022-12-16T19:23:37;23.80;1.00
20463;DHT22;10390;53.566;9.980;2022-12-16T19:26:21;23.70;1.00
20463;DHT22;10390;53.566;9.980;2022-12-16T19:29:05;23.70;1.00
20463;DHT22;10390;53.566;9.980;2022-12-16T19:31:49;23.70;1.00
20463;DHT22;10390;53.566;9.980;2022-12-16T19:34:33;23.70;1.00
20463;DHT22;10390;53.566;9.980;2022-12-16T19:37:17;23.70;1.00
20463;DHT22;10390;53.566;9.980;2022-12-16T19:40:02;23.70;1.00
20463;DHT22;10390;53.566;9.980;2022-12-16T19:42:46;23.70;1.00
20463;DHT22;10390;53.566;9.980;2022-12-16T19:45:30;23.70;1.00
20463;DHT22;10390;53.566;9.980;2022-12-16T19:48:34;23.80;1.00
20463;DHT22;10390;53.566;9.980;2022-12-16T19:51:18;23.80;1.00